Terminal Aerodrome Forecast
Issued by NWS Wilmington, OH

Home | Current Version | Previous Version | Text Only | Print | Product List | Glossary On
Versions: 1 2 3 4 5 6 7 8 9 10 11 12 13 14 15 16 17 18 19 20 21 22 23 24 25 26 27
000
FTUS41 KILN 181800 AAA
TAFDAY
TAF AMD
KDAY 181859Z 1819/1918 29006KT P6SM -SN OVC018
      TEMPO 1819/1822 5SM -SN BR OVC012
     FM182200 31006KT P6SM SCT015 OVC025
     FM190300 30005KT P6SM OVC015
     FM191600 28006KT P6SM OVC022=

USA.gov is the U.S. government's official web portal to all federal, state and local government web resources and services.